sensor_id;sensor_type;location;lat;lon;timestamp;pressure;altitude;pressure_sealevel;temperature;humidity
55171;BME280;41060;47.510;8.680;2023-03-01T00:02:05;97384.22;;;1.72;46.80
55171;BME280;41060;47.510;8.680;2023-03-01T00:04:32;97533.72;;;2.65;47.08
55171;BME280;41060;47.510;8.680;2023-03-01T00:07:00;97577.03;;;2.92;47.77
55171;BME280;41060;47.510;8.680;2023-03-01T00:09:27;97573.69;;;2.68;47.81
55171;BME280;41060;47.510;8.680;2023-03-01T00:11:54;97460.63;;;1.99;48.30
55171;BME280;41060;47.510;8.680;2023-03-01T00:14:22;97571.59;;;2.76;48.17
55171;BME280;41060;47.510;8.680;2023-03-01T00:16:49;97573.28;;;2.77;48.05
55171;BME280;41060;47.510;8.680;2023-03-01T00:19:18;97525.72;;;2.47;47.97
55171;BME280;41060;47.510;8.680;2023-03-01T00:21:45;97509.66;;;2.36;48.46
55171;BME280;41060;47.510;8.680;2023-03-01T00:24:12;97360.59;;;1.55;48.18
55171;BME280;41060;47.510;8.680;2023-03-01T00:26:42;97559.50;;;2.74;47.58
55171;BME280;41060;47.510;8.680;2023-03-01T00:29:08;97562.13;;;2.74;47.46
55171;BME280;41060;47.510;8.680;2023-03-01T00:31:36;97555.47;;;2.87;47.74
55171;BME280;41060;47.510;8.680;2023-03-01T00:34:05;97556.00;;;2.75;47.81
55171;BME280;41060;47.510;8.680;2023-03-01T00:36:34;97534.47;;;2.68;48.22
55171;BME280;41060;47.510;8.680;2023-03-01T00:39:01;97504.34;;;2.38;48.63
55171;BME280;41060;47.510;8.680;2023-03-01T00:41:30;97562.81;;;2.57;49.28
55171;BME280;41060;47.510;8.680;2023-03-01T00:43:56;97510.03;;;2.47;48.69
55171;BME280;41060;47.510;8.680;2023-03-01T00:46:25;97308.88;;;1.21;48.28
55171;BME280;41060;47.510;8.680;2023-03-01T00:48:54;97461.94;;;2.31;48.32
55171;BME280;41060;47.510;8.680;2023-03-01T00:51:22;97509.81;;;2.53;48.58
55171;BME280;41060;47.510;8.680;2023-03-01T00:53:50;97446.97;;;2.35;48.37
55171;BME280;41060;47.510;8.680;2023-03-01T00:56:17;97499.03;;;2.61;48.61
55171;BME280;41060;47.510;8.680;2023-03-01T00:58:44;97385.56;;;1.83;49.28
55171;BME280;41060;47.510;8.680;2023-03-01T01:01:13;97540.56;;;2.89;48.75
55171;BME280;41060;47.510;8.680;2023-03-01T01:03:45;97536.50;;;3.02;48.63
55171;BME280;41060;47.510;8.680;2023-03-01T01:06:18;97411.41;;;2.10;48.73
55171;BME280;41060;47.510;8.680;2023-03-01T01:08:46;97478.44;;;2.32;49.19
55171;BME280;41060;47.510;8.680;2023-03-01T01:11:13;97520.72;;;2.63;49.25
55171;BME280;41060;47.510;8.680;2023-03-01T01:13:41;97324.50;;;1.43;48.71
55171;BME280;41060;47.510;8.680;2023-03-01T01:16:08;97517.84;;;2.69;49.00
55171;BME280;41060;47.510;8.680;2023-03-01T01:18:35;97427.94;;;2.11;48.88
55171;BME280;41060;47.510;8.680;2023-03-01T01:21:07;97526.16;;;2.79;48.35
55171;BME280;41060;47.510;8.680;2023-03-01T01:23:36;97328.94;;;1.63;48.63
55171;BME280;41060;47.510;8.680;2023-03-01T01:26:05;97307.59;;;1.53;48.50
55171;BME280;41060;47.510;8.680;2023-03-01T01:28:31;97537.09;;;2.88;48.33
55171;BME280;41060;47.510;8.680;2023-03-01T01:30:59;97509.25;;;2.87;48.40
55171;BME280;41060;47.510;8.680;2023-03-01T01:33:26;97421.31;;;2.44;48.35
55171;BME280;41060;47.510;8.680;2023-03-01T01:35:53;97501.19;;;2.92;48.67
55171;BME280;41060;47.510;8.680;2023-03-01T01:38:20;97400.31;;;2.05;48.97
55171;BME280;41060;47.510;8.680;2023-03-01T01:40:50;97500.00;;;2.79;49.36
55171;BME280;41060;47.510;8.680;2023-03-01T01:43:20;97375.25;;;2.01;48.76
55171;BME280;41060;47.510;8.680;2023-03-01T01:45:49;97381.16;;;2.05;48.78
55171;BME280;41060;47.510;8.680;2023-03-01T01:48:19;97500.38;;;2.70;49.07
55171;BME280;41060;47.510;8.680;2023-03-01T01:50:51;97496.94;;;2.69;49.22
55171;BME280;41060;47.510;8.680;2023-03-01T01:53:21;97493.06;;;2.78;49.39
55171;BME280;41060;47.510;8.680;2023-03-01T01:55:51;97457.22;;;2.61;48.72
55171;BME280;41060;47.510;8.680;2023-03-01T01:58:21;97489.69;;;2.76;49.13
55171;BME280;41060;47.510;8.680;2023-03-01T02:00:48;97487.72;;;2.81;49.04
55171;BME280;41060;47.510;8.680;2023-03-01T02:03:18;97453.31;;;2.70;48.61
55171;BME280;41060;47.510;8.680;2023-03-01T02:05:51;97419.59;;;2.64;48.13
55171;BME280;41060;47.510;8.680;2023-03-01T02:08:21;97479.97;;;3.18;47.16
55171;BME280;41060;47.510;8.680;2023-03-01T02:10:51;97473.34;;;3.30;47.74
55171;BME280;41060;47.510;8.680;2023-03-01T02:13:19;97469.25;;;3.24;48.12
55171;BME280;41060;47.510;8.680;2023-03-01T02:15:45;97382.63;;;2.52;47.70
55171;BME280;41060;47.510;8.680;2023-03-01T02:18:14;97461.50;;;3.21;48.08
55171;BME280;41060;47.510;8.680;2023-03-01T02:20:52;97423.28;;;3.19;46.87
55171;BME280;41060;47.510;8.680;2023-03-01T02:23:23;97458.00;;;3.43;46.81
55171;BME280;41060;47.510;8.680;2023-03-01T02:25:55;97460.03;;;3.55;46.30
55171;BME280;41060;47.510;8.680;2023-03-01T02:28:32;97451.94;;;3.59;46.93
55171;BME280;41060;47.510;8.680;2023-03-01T02:30:59;97346.59;;;2.98;46.32
55171;BME280;41060;47.510;8.680;2023-03-01T02:33:45;97398.91;;;3.35;46.30
55171;BME280;41060;47.510;8.680;2023-03-01T02:36:15;97421.38;;;3.60;45.51
55171;BME280;41060;47.510;8.680;2023-03-01T02:38:43;97440.81;;;3.73;45.65
55171;BME280;41060;47.510;8.680;2023-03-01T02:41:12;97402.63;;;3.50;45.92
55171;BME280;41060;47.510;8.680;2023-03-01T02:43:42;97385.66;;;3.40;45.99
55171;BME280;41060;47.510;8.680;2023-03-01T02:46:15;97373.88;;;3.30;46.12
55171;BME280;41060;47.510;8.680;2023-03-01T02:48:44;97436.66;;;3.69;46.06
55171;BME280;41060;47.510;8.680;2023-03-01T02:51:24;97441.00;;;3.70;45.72
55171;BME280;41060;47.510;8.680;2023-03-01T02:53:59;97439.28;;;3.69;46.40
55171;BME280;41060;47.510;8.680;2023-03-01T02:56:31;97439.50;;;3.64;46.58
55171;BME280;41060;47.510;8.680;2023-03-01T02:59:00;97348.78;;;3.07;45.93
55171;BME280;41060;47.510;8.680;2023-03-01T03:01:27;97419.06;;;3.54;47.14
55171;BME280;41060;47.510;8.680;2023-03-01T03:04:04;97370.72;;;3.23;46.61
55171;BME280;41060;47.510;8.680;2023-03-01T03:06:30;97422.81;;;3.48;47.22
55171;BME280;41060;47.510;8.680;2023-03-01T03:08:59;97322.34;;;2.76;47.41
55171;BME280;41060;47.510;8.680;2023-03-01T03:11:27;97433.22;;;3.50;47.38
55171;BME280;41060;47.510;8.680;2023-03-01T03:13:53;97208.78;;;2.05;47.48
55171;BME280;41060;47.510;8.680;2023-03-01T03:16:21;97271.44;;;2.45;48.02
55171;BME280;41060;47.510;8.680;2023-03-01T03:18:49;97419.22;;;3.30;47.56
55171;BME280;41060;47.510;8.680;2023-03-01T03:21:16;97402.41;;;3.17;47.53
55171;BME280;41060;47.510;8.680;2023-03-01T03:23:43;97413.91;;;3.13;48.50
55171;BME280;41060;47.510;8.680;2023-03-01T03:26:10;97415.69;;;3.13;48.64
55171;BME280;41060;47.510;8.680;2023-03-01T03:28:40;97420.00;;;3.14;48.33
55171;BME280;41060;47.510;8.680;2023-03-01T03:31:07;97409.88;;;3.06;48.65
55171;BME280;41060;47.510;8.680;2023-03-01T03:33:36;97408.59;;;2.96;49.17
55171;BME280;41060;47.510;8.680;2023-03-01T03:36:04;97408.94;;;3.07;48.78
55171;BME280;41060;47.510;8.680;2023-03-01T03:38:31;97371.03;;;2.78;48.51
55171;BME280;41060;47.510;8.680;2023-03-01T03:41:02;97419.09;;;3.33;48.21
55171;BME280;41060;47.510;8.680;2023-03-01T03:43:31;97393.97;;;3.29;47.71
55171;BME280;41060;47.510;8.680;2023-03-01T03:45:58;97234.69;;;2.30;48.09
55171;BME280;41060;47.510;8.680;2023-03-01T03:48:26;97380.88;;;3.29;47.51
55171;BME280;41060;47.510;8.680;2023-03-01T03:50:55;97307.41;;;2.78;47.66
55171;BME280;41060;47.510;8.680;2023-03-01T03:53:24;97353.94;;;3.09;47.07
55171;BME280;41060;47.510;8.680;2023-03-01T03:55:52;97380.50;;;3.39;47.11
55171;BME280;41060;47.510;8.680;2023-03-01T03:58:20;97424.59;;;3.48;47.42
55171;BME280;41060;47.510;8.680;2023-03-01T04:00:49;97370.81;;;3.41;47.60
55171;BME280;41060;47.510;8.680;2023-03-01T04:03:18;97364.81;;;3.37;48.17
55171;BME280;41060;47.510;8.680;2023-03-01T04:05:46;97339.53;;;3.19;47.28
55171;BME280;41060;47.510;8.680;2023-03-01T04:08:15;97354.59;;;3.32;47.13
55171;BME280;41060;47.510;8.680;2023-03-01T04:10:43;97302.47;;;3.09;47.35
55171;BME280;41060;47.510;8.680;2023-03-01T04:13:12;97398.16;;;3.71;46.82
55171;BME280;41060;47.510;8.680;2023-03-01T04:15:40;97386.50;;;3.59;46.76
55171;BME280;41060;47.510;8.680;2023-03-01T04:18:09;97348.59;;;3.12;47.81
55171;BME280;41060;47.510;8.680;2023-03-01T04:20:38;97369.00;;;3.22;48.06
55171;BME280;41060;47.510;8.680;2023-03-01T04:23:07;97392.00;;;3.34;47.86
55171;BME280;41060;47.510;8.680;2023-03-01T04:25:41;97391.91;;;3.36;48.17
55171;BME280;41060;47.510;8.680;2023-03-01T04:28:09;97395.34;;;3.38;48.04
55171;BME280;41060;47.510;8.680;2023-03-01T04:30:36;97395.56;;;3.52;47.46
55171;BME280;41060;47.510;8.680;2023-03-01T04:33:04;97383.47;;;3.50;48.11
55171;BME280;41060;47.510;8.680;2023-03-01T04:35:32;97217.97;;;2.52;47.59
55171;BME280;41060;47.510;8.680;2023-03-01T04:38:01;97381.00;;;3.47;47.76
55171;BME280;41060;47.510;8.680;2023-03-01T04:40:28;97314.28;;;3.18;47.30
55171;BME280;41060;47.510;8.680;2023-03-01T04:42:56;97392.56;;;3.60;47.50
55171;BME280;41060;47.510;8.680;2023-03-01T04:45:23;97391.44;;;3.65;47.65
55171;BME280;41060;47.510;8.680;2023-03-01T04:47:50;97392.81;;;3.55;47.78
55171;BME280;41060;47.510;8.680;2023-03-01T04:50:19;97384.06;;;3.36;48.62
55171;BME280;41060;47.510;8.680;2023-03-01T04:52:48;97380.50;;;3.39;48.73
55171;BME280;41060;47.510;8.680;2023-03-01T04:55:14;97375.25;;;3.39;48.07
55171;BME280;41060;47.510;8.680;2023-03-01T04:57:42;97378.16;;;3.51;48.44
55171;BME280;41060;47.510;8.680;2023-03-01T05:00:12;97349.84;;;3.22;48.19
55171;BME280;41060;47.510;8.680;2023-03-01T05:02:48;97383.09;;;3.20;49.78
55171;BME280;41060;47.510;8.680;2023-03-01T05:05:19;97372.91;;;3.32;48.99
55171;BME280;41060;47.510;8.680;2023-03-01T05:07:52;97368.34;;;3.36;49.04
55171;BME280;41060;47.510;8.680;2023-03-01T05:10:19;97332.78;;;3.13;48.13
55171;BME280;41060;47.510;8.680;2023-03-01T05:12:46;97374.34;;;3.40;48.32
55171;BME280;41060;47.510;8.680;2023-03-01T05:15:15;97366.38;;;3.43;47.92
55171;BME280;41060;47.510;8.680;2023-03-01T05:17:41;97340.41;;;3.36;48.28
55171;BME280;41060;47.510;8.680;2023-03-01T05:20:09;97368.22;;;3.58;48.25
55171;BME280;41060;47.510;8.680;2023-03-01T05:22:37;97366.50;;;3.40;49.11
55171;BME280;41060;47.510;8.680;2023-03-01T05:25:05;97232.97;;;2.47;48.81
55171;BME280;41060;47.510;8.680;2023-03-01T05:27:32;97277.38;;;2.86;48.40
55171;BME280;41060;47.510;8.680;2023-03-01T05:30:00;97174.16;;;2.20;48.88
55171;BME280;41060;47.510;8.680;2023-03-01T05:32:40;97304.25;;;2.90;49.46
55171;BME280;41060;47.510;8.680;2023-03-01T05:35:09;97302.25;;;2.76;50.07
55171;BME280;41060;47.510;8.680;2023-03-01T05:37:39;97364.88;;;3.35;48.98
55171;BME280;41060;47.510;8.680;2023-03-01T05:40:08;97310.44;;;3.06;49.12
55171;BME280;41060;47.510;8.680;2023-03-01T05:42:42;97353.13;;;3.27;48.93
55171;BME280;41060;47.510;8.680;2023-03-01T05:45:10;97347.19;;;3.42;49.02
55171;BME280;41060;47.510;8.680;2023-03-01T05:47:39;97156.06;;;2.34;48.51
55171;BME280;41060;47.510;8.680;2023-03-01T05:50:11;97346.13;;;3.27;49.55
55171;BME280;41060;47.510;8.680;2023-03-01T05:52:38;97330.97;;;3.15;49.13
55171;BME280;41060;47.510;8.680;2023-03-01T05:55:05;97337.47;;;3.25;49.29
55171;BME280;41060;47.510;8.680;2023-03-01T05:57:33;97335.72;;;3.26;49.27
55171;BME280;41060;47.510;8.680;2023-03-01T05:59:59;97338.81;;;3.15;49.77
55171;BME280;41060;47.510;8.680;2023-03-01T06:02:26;97330.78;;;3.20;49.36
55171;BME280;41060;47.510;8.680;2023-03-01T06:04:56;97233.06;;;2.65;48.98
55171;BME280;41060;47.510;8.680;2023-03-01T06:07:23;97314.91;;;3.23;49.15
55171;BME280;41060;47.510;8.680;2023-03-01T06:09:49;97275.22;;;3.13;48.63
55171;BME280;41060;47.510;8.680;2023-03-01T06:12:17;97334.19;;;3.58;48.72
55171;BME280;41060;47.510;8.680;2023-03-01T06:14:45;97339.59;;;3.55;48.89
55171;BME280;41060;47.510;8.680;2023-03-01T06:17:11;97329.25;;;3.52;49.18
55171;BME280;41060;47.510;8.680;2023-03-01T06:19:38;97282.16;;;3.14;48.42
55171;BME280;41060;47.510;8.680;2023-03-01T06:22:06;97323.31;;;3.29;49.35
55171;BME280;41060;47.510;8.680;2023-03-01T06:24:33;97331.03;;;3.32;48.91
55171;BME280;41060;47.510;8.680;2023-03-01T06:27:00;97128.94;;;2.18;49.00
55171;BME280;41060;47.510;8.680;2023-03-01T06:29:27;97213.50;;;2.73;49.09
55171;BME280;41060;47.510;8.680;2023-03-01T06:31:53;97257.25;;;2.88;49.55
55171;BME280;41060;47.510;8.680;2023-03-01T06:34:20;97337.75;;;3.57;48.96
55171;BME280;41060;47.510;8.680;2023-03-01T06:36:47;97330.94;;;3.53;49.32
55171;BME280;41060;47.510;8.680;2023-03-01T06:39:15;97322.78;;;3.59;48.88
55171;BME280;41060;47.510;8.680;2023-03-01T06:41:43;97332.41;;;3.41;49.27
55171;BME280;41060;47.510;8.680;2023-03-01T06:44:10;97125.84;;;2.10;49.26
55171;BME280;41060;47.510;8.680;2023-03-01T06:46:36;97303.59;;;3.22;49.88
55171;BME280;41060;47.510;8.680;2023-03-01T06:49:04;97331.72;;;3.36;48.97
55171;BME280;41060;47.510;8.680;2023-03-01T06:51:34;97338.56;;;3.40;49.54
55171;BME280;41060;47.510;8.680;2023-03-01T06:54:01;97293.47;;;3.15;49.44
55171;BME280;41060;47.510;8.680;2023-03-01T06:56:32;97353.97;;;3.46;49.40
55171;BME280;41060;47.510;8.680;2023-03-01T06:58:59;97259.28;;;3.01;49.68
55171;BME280;41060;47.510;8.680;2023-03-01T07:01:25;97322.63;;;3.45;48.92
55171;BME280;41060;47.510;8.680;2023-03-01T07:03:52;97299.75;;;3.29;48.87
55171;BME280;41060;47.510;8.680;2023-03-01T07:06:19;97332.94;;;3.48;48.95
55171;BME280;41060;47.510;8.680;2023-03-01T07:08:46;97336.25;;;3.51;48.92
55171;BME280;41060;47.510;8.680;2023-03-01T07:11:13;97336.69;;;3.61;49.14
55171;BME280;41060;47.510;8.680;2023-03-01T07:13:41;97308.19;;;3.55;48.60
55171;BME280;41060;47.510;8.680;2023-03-01T07:16:08;97309.56;;;3.62;48.18
55171;BME280;41060;47.510;8.680;2023-03-01T07:18:35;97338.25;;;3.82;48.24
55171;BME280;41060;47.510;8.680;2023-03-01T07:21:05;97312.59;;;3.71;48.52
55171;BME280;41060;47.510;8.680;2023-03-01T07:23:32;97343.25;;;3.69;48.88
55171;BME280;41060;47.510;8.680;2023-03-01T07:25:59;97325.31;;;3.79;48.73
55171;BME280;41060;47.510;8.680;2023-03-01T07:28:27;97288.69;;;3.60;48.16
55171;BME280;41060;47.510;8.680;2023-03-01T07:30:55;97328.69;;;3.81;47.97
55171;BME280;41060;47.510;8.680;2023-03-01T07:33:25;97326.16;;;3.80;48.18
55171;BME280;41060;47.510;8.680;2023-03-01T07:35:56;97325.38;;;3.78;48.90
55171;BME280;41060;47.510;8.680;2023-03-01T07:38:23;97327.00;;;3.80;48.68
55171;BME280;41060;47.510;8.680;2023-03-01T07:40:50;97326.06;;;3.81;49.53
55171;BME280;41060;47.510;8.680;2023-03-01T07:43:16;97236.19;;;3.27;48.28
55171;BME280;41060;47.510;8.680;2023-03-01T07:45:43;97304.78;;;3.53;48.94
55171;BME280;41060;47.510;8.680;2023-03-01T07:48:11;97269.19;;;3.30;49.22
55171;BME280;41060;47.510;8.680;2023-03-01T07:50:38;97334.84;;;3.63;49.63
55171;BME280;41060;47.510;8.680;2023-03-01T07:53:05;97329.53;;;3.64;49.66
55171;BME280;41060;47.510;8.680;2023-03-01T07:55:32;97197.94;;;2.89;49.34
55171;BME280;41060;47.510;8.680;2023-03-01T07:57:58;97155.63;;;2.62;49.00
55171;BME280;41060;47.510;8.680;2023-03-01T08:00:28;97303.59;;;3.41;49.07
55171;BME280;41060;47.510;8.680;2023-03-01T08:02:58;97198.22;;;2.83;49.47
55171;BME280;41060;47.510;8.680;2023-03-01T08:05:27;97319.81;;;3.66;49.23
55171;BME280;41060;47.510;8.680;2023-03-01T08:07:54;97324.97;;;3.68;49.06
55171;BME280;41060;47.510;8.680;2023-03-01T08:10:20;97267.72;;;3.24;49.20
55171;BME280;41060;47.510;8.680;2023-03-01T08:12:47;97323.44;;;3.64;49.21
55171;BME280;41060;47.510;8.680;2023-03-01T08:15:14;97317.03;;;3.33;49.74
55171;BME280;41060;47.510;8.680;2023-03-01T08:17:41;97254.00;;;2.83;50.41
55171;BME280;41060;47.510;8.680;2023-03-01T08:20:09;97316.84;;;3.19;50.22
55171;BME280;41060;47.510;8.680;2023-03-01T08:22:40;97256.19;;;2.74;50.50
55171;BME280;41060;47.510;8.680;2023-03-01T08:25:07;97298.31;;;2.86;50.94
55171;BME280;41060;47.510;8.680;2023-03-01T08:27:34;97312.56;;;3.17;50.47
55171;BME280;41060;47.510;8.680;2023-03-01T08:30:05;97309.25;;;3.32;49.93
55171;BME280;41060;47.510;8.680;2023-03-01T08:32:36;97291.72;;;3.15;50.41
55171;BME280;41060;47.510;8.680;2023-03-01T08:35:07;97275.75;;;2.84;50.22
55171;BME280;41060;47.510;8.680;2023-03-01T08:37:33;97305.56;;;3.17;50.61
55171;BME280;41060;47.510;8.680;2023-03-01T08:40:01;97272.41;;;2.99;49.92
55171;BME280;41060;47.510;8.680;2023-03-01T08:42:29;97298.91;;;3.48;49.84
55171;BME280;41060;47.510;8.680;2023-03-01T08:44:56;97238.22;;;3.04;49.73
55171;BME280;41060;47.510;8.680;2023-03-01T08:47:23;97308.38;;;3.50;49.75
55171;BME280;41060;47.510;8.680;2023-03-01T08:49:50;97313.63;;;3.31;50.31
55171;BME280;41060;47.510;8.680;2023-03-01T08:52:16;97208.41;;;2.70;50.65
55171;BME280;41060;47.510;8.680;2023-03-01T08:54:43;97272.53;;;3.33;49.23
55171;BME280;41060;47.510;8.680;2023-03-01T08:57:11;97304.34;;;3.62;49.55
55171;BME280;41060;47.510;8.680;2023-03-01T08:59:38;97301.56;;;3.65;49.37
55171;BME280;41060;47.510;8.680;2023-03-01T09:02:06;97315.69;;;3.44;49.71
55171;BME280;41060;47.510;8.680;2023-03-01T09:04:37;97305.63;;;3.34;50.65
55171;BME280;41060;47.510;8.680;2023-03-01T09:07:04;97240.53;;;2.91;50.12
55171;BME280;41060;47.510;8.680;2023-03-01T09:09:30;97300.47;;;3.14;50.89
55171;BME280;41060;47.510;8.680;2023-03-01T09:11:58;97305.22;;;3.25;50.64
55171;BME280;41060;47.510;8.680;2023-03-01T09:14:26;97295.66;;;3.24;50.19
55171;BME280;41060;47.510;8.680;2023-03-01T09:16:53;97290.47;;;3.60;49.87
55171;BME280;41060;47.510;8.680;2023-03-01T09:19:20;97295.16;;;3.53;49.53
55171;BME280;41060;47.510;8.680;2023-03-01T09:21:47;97277.91;;;3.66;49.05
55171;BME280;41060;47.510;8.680;2023-03-01T09:24:19;97280.78;;;3.62;49.87
55171;BME280;41060;47.510;8.680;2023-03-01T09:26:47;97241.63;;;3.59;49.42
55171;BME280;41060;47.510;8.680;2023-03-01T09:29:14;97244.38;;;3.39;49.74
55171;BME280;41060;47.510;8.680;2023-03-01T09:31:42;97239.75;;;3.08;50.26
55171;BME280;41060;47.510;8.680;2023-03-01T09:34:09;97277.78;;;3.33;49.81
55171;BME280;41060;47.510;8.680;2023-03-01T09:36:36;97235.09;;;2.77;50.84
55171;BME280;41060;47.510;8.680;2023-03-01T09:39:03;97297.72;;;2.98;50.85
55171;BME280;41060;47.510;8.680;2023-03-01T09:41:42;97284.28;;;3.44;49.90
55171;BME280;41060;47.510;8.680;2023-03-01T09:44:16;97275.34;;;3.29;49.99
55171;BME280;41060;47.510;8.680;2023-03-01T09:46:51;97282.91;;;3.54;50.16
55171;BME280;41060;47.510;8.680;2023-03-01T09:49:19;97289.56;;;3.78;48.60
55171;BME280;41060;47.510;8.680;2023-03-01T09:51:55;97185.25;;;3.34;48.62
55171;BME280;41060;47.510;8.680;2023-03-01T09:54:22;97283.25;;;3.99;48.54
55171;BME280;41060;47.510;8.680;2023-03-01T09:56:59;97177.66;;;3.47;48.45
55171;BME280;41060;47.510;8.680;2023-03-01T09:59:39;97273.53;;;3.84;48.02
55171;BME280;41060;47.510;8.680;2023-03-01T10:02:23;97091.00;;;2.47;49.36
55171;BME280;41060;47.510;8.680;2023-03-01T10:04:54;97242.09;;;3.50;49.42
55171;BME280;41060;47.510;8.680;2023-03-01T10:07:28;97253.50;;;3.66;48.93
55171;BME280;41060;47.510;8.680;2023-03-01T10:09:59;97230.50;;;3.36;49.24
55171;BME280;41060;47.510;8.680;2023-03-01T10:12:33;97237.50;;;3.36;49.87
55171;BME280;41060;47.510;8.680;2023-03-01T10:15:05;97250.69;;;3.16;50.15
55171;BME280;41060;47.510;8.680;2023-03-01T10:17:37;97266.28;;;3.55;49.32
55171;BME280;41060;47.510;8.680;2023-03-01T10:20:19;97229.69;;;3.53;49.49
55171;BME280;41060;47.510;8.680;2023-03-01T10:22:46;97229.94;;;3.49;49.26
55171;BME280;41060;47.510;8.680;2023-03-01T10:25:20;97065.06;;;2.61;48.44
55171;BME280;41060;47.510;8.680;2023-03-01T10:27:52;97189.41;;;3.39;48.58
55171;BME280;41060;47.510;8.680;2023-03-01T10:30:21;97223.06;;;3.46;49.58
55171;BME280;41060;47.510;8.680;2023-03-01T10:32:51;97178.63;;;3.27;48.89
55171;BME280;41060;47.510;8.680;2023-03-01T10:35:21;97208.28;;;3.45;48.85
55171;BME280;41060;47.510;8.680;2023-03-01T10:38:03;97255.22;;;3.84;48.27
55171;BME280;41060;47.510;8.680;2023-03-01T10:40:29;97213.16;;;3.87;47.64
55171;BME280;41060;47.510;8.680;2023-03-01T10:42:58;97239.97;;;4.25;47.83
55171;BME280;41060;47.510;8.680;2023-03-01T10:45:32;97231.94;;;4.28;47.75
55171;BME280;41060;47.510;8.680;2023-03-01T10:48:05;97232.59;;;4.16;47.41
55171;BME280;41060;47.510;8.680;2023-03-01T10:50:35;97234.66;;;4.27;47.50
55171;BME280;41060;47.510;8.680;2023-03-01T10:53:26;97235.56;;;4.26;47.79
55171;BME280;41060;47.510;8.680;2023-03-01T10:55:59;97013.03;;;2.74;48.28
55171;BME280;41060;47.510;8.680;2023-03-01T10:58:28;97234.53;;;4.12;47.55
55171;BME280;41060;47.510;8.680;2023-03-01T11:00:56;97222.28;;;4.13;47.44
55171;BME280;41060;47.510;8.680;2023-03-01T11:03:26;97243.34;;;4.44;47.02
55171;BME280;41060;47.510;8.680;2023-03-01T11:06:04;97241.22;;;4.51;47.24
55171;BME280;41060;47.510;8.680;2023-03-01T11:08:41;97163.56;;;4.00;47.18
55171;BME280;41060;47.510;8.680;2023-03-01T11:11:30;97207.09;;;4.02;47.61
55171;BME280;41060;47.510;8.680;2023-03-01T11:13:58;97213.16;;;3.87;48.12
55171;BME280;41060;47.510;8.680;2023-03-01T11:16:34;97234.44;;;4.14;47.64
55171;BME280;41060;47.510;8.680;2023-03-01T11:19:16;97184.03;;;3.76;47.75
55171;BME280;41060;47.510;8.680;2023-03-01T11:21:52;97237.47;;;3.89;49.07
55171;BME280;41060;47.510;8.680;2023-03-01T11:24:30;97205.75;;;3.78;48.46
55171;BME280;41060;47.510;8.680;2023-03-01T11:27:02;97233.59;;;4.13;47.75
55171;BME280;41060;47.510;8.680;2023-03-01T11:29:33;97239.78;;;3.95;48.17
55171;BME280;41060;47.510;8.680;2023-03-01T11:32:06;97193.13;;;3.86;48.19
55171;BME280;41060;47.510;8.680;2023-03-01T11:34:40;97041.25;;;3.02;47.75
55171;BME280;41060;47.510;8.680;2023-03-01T11:37:16;97181.53;;;3.90;47.93
55171;BME280;41060;47.510;8.680;2023-03-01T11:39:54;97204.28;;;4.23;47.05
55171;BME280;41060;47.510;8.680;2023-03-01T11:42:29;97227.75;;;4.41;47.20
55171;BME280;41060;47.510;8.680;2023-03-01T11:45:02;97203.78;;;4.32;47.48
55171;BME280;41060;47.510;8.680;2023-03-01T11:47:50;97212.72;;;3.95;48.33
55171;BME280;41060;47.510;8.680;2023-03-01T11:50:29;97221.38;;;3.97;48.18
55171;BME280;41060;47.510;8.680;2023-03-01T11:53:14;97216.81;;;4.00;47.79
55171;BME280;41060;47.510;8.680;2023-03-01T11:55:57;97113.38;;;3.42;47.94
55171;BME280;41060;47.510;8.680;2023-03-01T11:59:06;97176.88;;;3.80;47.28
55171;BME280;41060;47.510;8.680;2023-03-01T12:01:50;97178.34;;;3.68;48.14
55171;BME280;41060;47.510;8.680;2023-03-01T12:04:51;97190.66;;;3.83;47.86
55171;BME280;41060;47.510;8.680;2023-03-01T12:07:24;97080.56;;;3.00;48.04
55171;BME280;41060;47.510;8.680;2023-03-01T12:10:13;97193.44;;;4.13;47.21
55171;BME280;41060;47.510;8.680;2023-03-01T12:12:54;97191.84;;;4.26;47.35
55171;BME280;41060;47.510;8.680;2023-03-01T12:15:39;97187.78;;;4.21;47.01
55171;BME280;41060;47.510;8.680;2023-03-01T12:18:24;97182.47;;;3.89;48.04
55171;BME280;41060;47.510;8.680;2023-03-01T12:21:10;97123.53;;;3.48;48.76
55171;BME280;41060;47.510;8.680;2023-03-01T12:23:54;97176.44;;;4.04;47.73
55171;BME280;41060;47.510;8.680;2023-03-01T12:26:30;97173.97;;;4.01;47.62
55171;BME280;41060;47.510;8.680;2023-03-01T12:29:17;97171.44;;;4.00;47.90
55171;BME280;41060;47.510;8.680;2023-03-01T12:32:00;97153.56;;;3.91;47.69
55171;BME280;41060;47.510;8.680;2023-03-01T12:34:49;97166.28;;;3.98;47.64
55171;BME280;41060;47.510;8.680;2023-03-01T12:37:26;97119.72;;;3.70;47.52
55171;BME280;41060;47.510;8.680;2023-03-01T12:40:09;97163.19;;;4.07;47.07
55171;BME280;41060;47.510;8.680;2023-03-01T12:42:41;97164.06;;;3.91;47.46
55171;BME280;41060;47.510;8.680;2023-03-01T12:45:28;97163.16;;;3.74;48.00
55171;BME280;41060;47.510;8.680;2023-03-01T12:48:09;97044.53;;;3.40;47.65
55171;BME280;41060;47.510;8.680;2023-03-01T12:50:41;97085.81;;;3.85;46.80
55171;BME280;41060;47.510;8.680;2023-03-01T12:53:21;97108.22;;;4.06;46.82
55171;BME280;41060;47.510;8.680;2023-03-01T12:55:52;97155.03;;;4.45;47.05
55171;BME280;41060;47.510;8.680;2023-03-01T12:58:25;97142.94;;;4.09;46.52
55171;BME280;41060;47.510;8.680;2023-03-01T13:01:04;97163.81;;;4.28;46.53
55171;BME280;41060;47.510;8.680;2023-03-01T13:03:45;97138.50;;;4.11;46.33
55171;BME280;41060;47.510;8.680;2023-03-01T13:06:19;97170.91;;;4.26;46.17
55171;BME280;41060;47.510;8.680;2023-03-01T13:08:58;97156.38;;;4.03;46.52
55171;BME280;41060;47.510;8.680;2023-03-01T13:11:28;97161.56;;;3.72;47.51
55171;BME280;41060;47.510;8.680;2023-03-01T13:16:55;97168.03;;;3.98;47.19
55171;BME280;41060;47.510;8.680;2023-03-01T13:19:24;97147.38;;;4.09;46.63
55171;BME280;41060;47.510;8.680;2023-03-01T13:21:52;97153.13;;;4.16;47.32
55171;BME280;41060;47.510;8.680;2023-03-01T13:24:34;97098.56;;;3.91;46.16
55171;BME280;41060;47.510;8.680;2023-03-01T13:27:23;97095.81;;;3.77;46.11
55171;BME280;41060;47.510;8.680;2023-03-01T13:29:56;97152.00;;;4.04;46.63
55171;BME280;41060;47.510;8.680;2023-03-01T13:32:26;97149.97;;;3.93;47.85